Time;durP1;ratioP1;P1;durP2;ratioP2;P2;SDS_P1;SDS_P2;PMS_P1;PMS_P2;Temp;Humidity;BMP_temperature;BMP_pressure;BME280_temperature;BME280_humidity;BME280_pressure;Samples;Min_cycle;Max_cycle;Signal;HPM_P1;HPM_P2
2022/08/02 00:01:17;;;;;;;2.75;1.10;;;9.40;99.90;;;;;;5055470;28;20029;-74
2022/08/02 00:03:46;;;;;;;4.60;1.27;;;9.50;99.90;;;;;;5055136;28;20045;-74
2022/08/02 00:06:13;;;;;;;1.77;0.85;;;9.50;99.90;;;;;;5055367;28;20021;-74
2022/08/02 00:08:40;;;;;;;1.45;1.02;;;9.60;99.90;;;;;;5055241;28;20359;-75
2022/08/02 00:11:10;;;;;;;0.98;0.47;;;9.70;99.90;;;;;;5055006;28;20070;-75
2022/08/02 00:13:38;;;;;;;1.42;0.50;;;9.80;99.90;;;;;;5055246;28;20025;-75
2022/08/02 00:16:05;;;;;;;1.80;0.60;;;9.80;99.90;;;;;;5055070;28;20390;-75
2022/08/02 00:18:33;;;;;;;1.80;0.50;;;9.90;99.90;;;;;;5055159;28;20029;-75
2022/08/02 00:21:00;;;;;;;4.05;0.45;;;9.90;99.90;;;;;;5055236;28;20462;-74
2022/08/02 00:23:28;;;;;;;1.20;0.45;;;10.00;99.90;;;;;;5054841;28;20035;-72
2022/08/02 00:25:56;;;;;;;0.38;0.32;;;10.00;99.90;;;;;;5055066;28;20079;-73
2022/08/02 00:28:27;;;;;;;0.68;0.30;;;10.10;99.90;;;;;;5055067;28;20021;-74
2022/08/02 00:30:56;;;;;;;0.70;0.60;;;10.10;99.90;;;;;;5055252;28;20024;-74
2022/08/02 00:33:24;;;;;;;3.40;0.60;;;10.20;99.90;;;;;;5054728;28;20463;-74
2022/08/02 00:35:51;;;;;;;1.05;0.40;;;10.20;99.90;;;;;;5054612;28;20040;-74
2022/08/02 00:38:18;;;;;;;0.40;0.30;;;10.30;99.90;;;;;;5054552;28;20029;-74
2022/08/02 00:40:50;;;;;;;1.88;0.50;;;10.40;99.90;;;;;;5054861;28;20025;-74
2022/08/02 00:43:20;;;;;;;1.10;0.47;;;10.50;99.90;;;;;;5054706;28;20517;-72
2022/08/02 00:45:50;;;;;;;2.33;0.45;;;10.60;99.90;;;;;;5054693;28;20021;-73
2022/08/02 00:48:18;;;;;;;0.93;0.40;;;10.70;99.90;;;;;;5054616;28;20094;-73
2022/08/02 00:50:45;;;;;;;0.30;0.30;;;10.70;99.90;;;;;;5054590;28;20031;-74
2022/08/02 00:53:12;;;;;;;0.50;0.30;;;10.80;99.90;;;;;;5054411;28;20020;-74
2022/08/02 00:55:40;;;;;;;1.38;0.40;;;10.90;99.90;;;;;;5054388;28;20028;-74
2022/08/02 00:58:07;;;;;;;0.30;0.30;;;10.90;99.90;;;;;;5054276;28;20037;-74
2022/08/02 01:00:34;;;;;;;0.70;0.43;;;10.90;99.90;;;;;;5054331;28;20021;-74
2022/08/02 01:03:02;;;;;;;1.30;0.40;;;11.00;99.90;;;;;;5053975;28;20056;-74
2022/08/02 01:05:29;;;;;;;2.25;0.85;;;11.10;99.90;;;;;;5054334;28;20052;-74
2022/08/02 01:07:56;;;;;;;1.05;0.43;;;11.10;99.90;;;;;;5054077;28;20417;-73
2022/08/02 01:10:24;;;;;;;0.75;0.40;;;11.20;99.90;;;;;;5054279;28;20048;-74
2022/08/02 01:12:51;;;;;;;1.17;0.35;;;11.30;99.90;;;;;;5054031;28;20432;-73
2022/08/02 01:15:20;;;;;;;1.05;0.47;;;11.40;99.90;;;;;;5053913;28;20021;-72
2022/08/02 01:17:47;;;;;;;1.63;0.90;;;11.40;99.90;;;;;;5054017;28;20128;-74
2022/08/02 01:20:38;;;;;;;1.88;0.55;;;11.40;99.90;;;;;;5054600;28;20466;-72
2022/08/02 01:23:11;;;;;;;0.57;0.35;;;11.50;99.90;;;;;;5053748;28;20033;-74
2022/08/02 01:26:06;;;;;;;4.03;0.65;;;11.60;99.90;;;;;;5054329;28;20528;-74
2022/08/02 01:28:54;;;;;;;1.42;0.50;;;11.60;99.90;;;;;;5053804;28;20131;-72
2022/08/02 01:31:37;;;;;;;1.33;0.40;;;11.70;99.90;;;;;;5054160;28;20116;-72
2022/08/02 01:34:17;;;;;;;1.25;0.80;;;11.70;99.90;;;;;;5053638;28;20127;-71
2022/08/02 01:36:49;;;;;;;1.25;0.43;;;11.80;99.90;;;;;;5053605;28;20021;-71
2022/08/02 01:39:23;;;;;;;0.73;0.40;;;11.80;99.90;;;;;;5053798;28;20021;-74
2022/08/02 01:41:52;;;;;;;0.55;0.43;;;11.90;99.90;;;;;;5053748;28;20017;-71
2022/08/02 01:44:21;;;;;;;1.30;0.43;;;11.90;99.90;;;;;;5053530;28;20082;-74
2022/08/02 01:46:50;;;;;;;0.60;0.45;;;11.90;99.90;;;;;;5053496;28;20024;-72
2022/08/02 01:49:29;;;;;;;0.65;0.45;;;12.00;99.90;;;;;;5053601;28;20386;-71
2022/08/02 01:54:48;;;;;;;0.30;0.20;;;12.10;99.90;;;;;;5053483;28;20028;-72
2022/08/02 01:57:17;;;;;;;0.50;0.32;;;12.20;99.90;;;;;;5053459;28;20163;-71
2022/08/02 01:59:46;;;;;;;0.85;0.38;;;12.20;99.90;;;;;;5053477;28;20021;-71
2022/08/02 02:02:15;;;;;;;2.13;0.95;;;12.30;99.90;;;;;;5053116;28;20044;-72
2022/08/02 02:04:46;;;;;;;1.33;0.50;;;12.30;99.90;;;;;;5053397;28;20143;-75
2022/08/02 02:07:14;;;;;;;0.70;0.40;;;12.40;99.90;;;;;;5053389;28;20050;-72
2022/08/02 02:09:45;;;;;;;0.75;0.30;;;12.40;99.90;;;;;;5053919;28;20045;-72
2022/08/02 02:12:14;;;;;;;0.40;0.40;;;12.50;99.90;;;;;;5053109;28;20033;-72
2022/08/02 02:14:43;;;;;;;1.05;0.50;;;12.50;99.90;;;;;;5053150;28;20021;-73
2022/08/02 02:17:12;;;;;;;0.98;0.40;;;12.50;99.90;;;;;;5051599;28;20438;-74
2022/08/02 02:19:41;;;;;;;1.67;0.65;;;12.50;99.90;;;;;;5053121;28;20025;-74
2022/08/02 02:22:09;;;;;;;1.70;0.52;;;12.50;99.90;;;;;;5053025;28;20013;-72
2022/08/02 02:24:36;;;;;;;1.08;0.50;;;12.60;99.90;;;;;;5053093;28;20033;-72
2022/08/02 02:27:06;;;;;;;1.23;0.35;;;12.70;99.90;;;;;;5053211;28;20073;-72
2022/08/02 02:29:34;;;;;;;0.60;0.30;;;12.70;99.90;;;;;;5053283;28;20100;-72
2022/08/02 02:32:04;;;;;;;1.88;0.50;;;12.70;99.90;;;;;;5053368;28;20035;-75
2022/08/02 02:34:40;;;;;;;0.95;0.40;;;12.80;99.90;;;;;;5056995;28;20509;-72
2022/08/02 02:37:21;;;;;;;0.30;0.30;;;13.00;99.90;;;;;;5057089;28;20033;-72
2022/08/02 02:39:51;;;;;;;0.80;0.40;;;13.00;99.90;;;;;;5057413;28;20064;-71
2022/08/02 02:42:21;;;;;;;0.57;0.30;;;13.10;99.90;;;;;;5057021;28;20020;-72
2022/08/02 02:44:50;;;;;;;0.22;0.22;;;13.20;99.90;;;;;;5056979;28;20017;-72
2022/08/02 02:47:19;;;;;;;0.90;0.20;;;13.20;99.90;;;;;;5056850;28;20111;-75
2022/08/02 02:49:48;;;;;;;0.60;0.47;;;13.20;99.90;;;;;;5056942;28;20466;-75
2022/08/02 02:52:16;;;;;;;1.60;0.50;;;13.20;99.90;;;;;;5056816;28;20056;-74
2022/08/02 02:54:47;;;;;;;1.83;0.30;;;13.20;99.90;;;;;;5056698;28;20013;-72
2022/08/02 02:57:16;;;;;;;1.00;0.30;;;13.30;99.90;;;;;;5056473;28;20036;-75
2022/08/02 02:59:44;;;;;;;0.95;0.30;;;13.40;99.90;;;;;;5056624;28;20029;-74
2022/08/02 03:02:12;;;;;;;0.82;0.30;;;13.40;99.90;;;;;;5056513;28;20048;-72
2022/08/02 03:04:41;;;;;;;0.98;0.45;;;13.40;99.90;;;;;;5056644;28;20092;-74
2022/08/02 03:07:10;;;;;;;1.55;0.55;;;13.50;99.90;;;;;;5056349;28;20032;-72
2022/08/02 03:09:37;;;;;;;0.95;0.30;;;13.50;99.90;;;;;;5056710;28;20108;-75
2022/08/02 03:12:05;;;;;;;4.95;0.60;;;13.50;99.90;;;;;;5056325;28;20040;-73
2022/08/02 03:14:42;;;;;;;0.50;0.30;;;13.60;99.90;;;;;;5056204;28;20041;-73
2022/08/02 03:17:10;;;;;;;1.40;0.43;;;13.60;99.90;;;;;;5056120;28;20457;-72
2022/08/02 03:19:37;;;;;;;0.70;0.40;;;13.60;99.80;;;;;;5056438;28;20033;-73
2022/08/02 03:22:05;;;;;;;1.77;0.43;;;13.70;99.10;;;;;;5056318;28;20098;-72
2022/08/02 03:24:35;;;;;;;1.40;0.40;;;13.70;99.90;;;;;;5056482;28;20087;-75
2022/08/02 03:27:02;;;;;;;1.33;0.30;;;13.70;99.90;;;;;;5056038;28;20021;-73
2022/08/02 03:29:29;;;;;;;0.35;0.25;;;13.80;99.90;;;;;;5056208;28;20032;-74
2022/08/02 03:31:58;;;;;;;3.92;0.30;;;13.80;99.90;;;;;;5056414;28;20025;-75
2022/08/02 03:34:25;;;;;;;0.52;0.30;;;13.80;99.90;;;;;;5055798;28;20017;-75
2022/08/02 03:36:56;;;;;;;1.25;0.45;;;13.80;99.90;;;;;;5055772;28;20083;-75
2022/08/02 03:39:25;;;;;;;1.55;0.30;;;13.80;99.90;;;;;;5056307;28;20025;-72
2022/08/02 03:41:53;;;;;;;0.40;0.20;;;13.90;99.90;;;;;;5056178;28;20104;-75
2022/08/02 03:44:21;;;;;;;1.58;0.60;;;14.00;99.90;;;;;;5055156;28;20025;-75
2022/08/02 03:46:50;;;;;;;1.05;0.35;;;14.10;99.90;;;;;;5056133;28;20021;-75
2022/08/02 03:49:18;;;;;;;2.33;0.40;;;14.10;99.90;;;;;;5055659;28;20074;-74
2022/08/02 03:51:46;;;;;;;1.27;0.45;;;14.10;99.90;;;;;;5055704;28;20025;-75
2022/08/02 03:54:14;;;;;;;0.50;0.30;;;14.10;99.90;;;;;;5055605;28;20112;-72
2022/08/02 03:56:41;;;;;;;0.60;0.30;;;14.10;99.90;;;;;;5055499;28;20513;-74
2022/08/02 03:59:12;;;;;;;0.50;0.20;;;14.20;99.90;;;;;;5055630;28;20033;-74
2022/08/02 04:01:40;;;;;;;0.77;0.35;;;14.10;99.90;;;;;;5055718;28;20040;-74
2022/08/02 04:04:07;;;;;;;0.60;0.30;;;14.10;99.90;;;;;;5055167;28;20048;-72
2022/08/02 04:06:35;;;;;;;1.00;0.40;;;14.10;99.90;;;;;;5055445;28;20036;-72
2022/08/02 04:09:03;;;;;;;0.82;0.40;;;14.10;99.90;;;;;;5055314;28;20021;-73
2022/08/02 04:11:30;;;;;;;2.10;0.40;;;14.10;99.90;;;;;;5055653;28;20159;-74
2022/08/02 04:14:09;;;;;;;0.25;0.25;;;14.10;99.90;;;;;;5055120;28;20523;-75
2022/08/02 04:16:47;;;;;;;0.95;0.30;;;14.20;99.90;;;;;;5055143;28;20109;-75
2022/08/02 04:19:28;;;;;;;0.90;0.50;;;14.20;99.90;;;;;;5055115;28;20115;-73
2022/08/02 04:22:00;;;;;;;0.63;0.40;;;14.10;99.90;;;;;;5055217;28;20083;-75
2022/08/02 04:24:33;;;;;;;1.48;0.30;;;14.10;99.90;;;;;;5055220;28;20529;-75
2022/08/02 04:27:01;;;;;;;2.85;0.50;;;14.10;99.90;;;;;;5055073;28;20025;-74
2022/08/02 04:29:32;;;;;;;2.85;0.30;;;14.20;99.90;;;;;;5055176;28;20108;-72
2022/08/02 04:32:00;;;;;;;0.70;0.30;;;14.10;99.90;;;;;;5054993;28;20480;-72
2022/08/02 04:34:28;;;;;;;0.47;0.40;;;14.10;99.90;;;;;;5054950;28;20021;-72
2022/08/02 04:36:56;;;;;;;0.40;0.30;;;14.10;99.90;;;;;;5054811;28;20031;-75
2022/08/02 04:39:23;;;;;;;0.32;0.30;;;14.20;99.90;;;;;;5054672;28;20029;-72
2022/08/02 04:41:50;;;;;;;0.68;0.60;;;14.10;99.90;;;;;;5054602;28;20072;-72
2022/08/02 04:44:21;;;;;;;6.22;0.75;;;14.20;99.90;;;;;;5054583;28;20029;-72
2022/08/02 04:46:48;;;;;;;0.73;0.52;;;14.20;99.90;;;;;;5054669;28;20071;-73
2022/08/02 04:49:16;;;;;;;0.90;0.50;;;14.10;99.90;;;;;;5054820;28;20032;-72
2022/08/02 04:51:43;;;;;;;1.30;0.60;;;14.10;99.90;;;;;;5054479;28;20371;-75
2022/08/02 04:54:12;;;;;;;0.60;0.50;;;14.10;99.90;;;;;;5053163;28;20021;-75
2022/08/02 04:56:40;;;;;;;1.30;0.70;;;14.20;99.90;;;;;;5053332;28;20374;-72
2022/08/02 04:59:07;;;;;;;0.60;0.35;;;14.20;99.90;;;;;;5054278;28;20394;-72
2022/08/02 05:01:35;;;;;;;1.55;0.70;;;14.20;99.90;;;;;;5054481;28;20029;-71
2022/08/02 05:04:03;;;;;;;0.52;0.30;;;14.20;99.90;;;;;;5053968;28;20056;-72
2022/08/02 05:06:31;;;;;;;0.95;0.40;;;14.20;99.90;;;;;;5054459;28;20036;-72
2022/08/02 05:08:59;;;;;;;0.40;0.40;;;14.20;99.90;;;;;;5054231;28;20017;-72
2022/08/02 05:11:27;;;;;;;1.25;0.50;;;14.20;99.90;;;;;;5054224;28;20025;-72
2022/08/02 05:13:57;;;;;;;0.95;0.40;;;14.20;99.90;;;;;;5054162;28;20099;-71
2022/08/02 05:16:26;;;;;;;1.80;0.40;;;14.20;99.90;;;;;;5054006;28;20031;-72
2022/08/02 05:18:53;;;;;;;0.45;0.40;;;14.20;99.90;;;;;;5053948;28;20083;-72
2022/08/02 05:21:21;;;;;;;0.55;0.30;;;14.20;99.90;;;;;;5054003;28;20021;-71
2022/08/02 05:23:49;;;;;;;1.35;0.65;;;14.20;99.90;;;;;;5053857;28;20021;-71
2022/08/02 05:26:16;;;;;;;0.20;0.20;;;14.30;99.90;;;;;;5053975;28;20025;-72
2022/08/02 05:28:44;;;;;;;0.47;0.30;;;14.30;99.90;;;;;;5053901;28;20017;-72
2022/08/02 05:31:12;;;;;;;0.20;0.20;;;14.40;99.90;;;;;;5053916;28;20050;-74
2022/08/02 05:33:43;;;;;;;0.75;0.32;;;14.40;99.90;;;;;;5053655;28;20036;-72
2022/08/02 05:36:11;;;;;;;0.30;0.30;;;14.40;99.90;;;;;;5053602;28;20020;-72
2022/08/02 05:38:38;;;;;;;1.35;0.40;;;14.30;99.90;;;;;;5053616;28;20063;-72
2022/08/02 05:41:07;;;;;;;0.47;0.43;;;14.30;99.90;;;;;;5053645;28;20017;-72
2022/08/02 05:43:34;;;;;;;0.55;0.30;;;14.30;99.90;;;;;;5053517;28;20021;-72
2022/08/02 05:46:02;;;;;;;0.10;0.10;;;14.20;99.90;;;;;;5053490;28;20025;-74
2022/08/02 05:48:30;;;;;;;0.50;0.30;;;14.20;99.90;;;;;;5053516;28;20108;-72
2022/08/02 05:51:04;;;;;;;0.57;0.30;;;14.20;99.90;;;;;;5053486;28;20032;-73
2022/08/02 05:53:41;;;;;;;1.65;0.30;;;14.20;99.90;;;;;;5053833;28;20032;-74
2022/08/02 05:56:38;;;;;;;0.47;0.30;;;14.20;99.90;;;;;;5053445;28;20025;-72
2022/08/02 05:59:26;;;;;;;1.55;0.35;;;14.20;99.90;;;;;;5053106;28;20061;-72
2022/08/02 06:02:01;;;;;;;0.20;0.20;;;14.10;99.90;;;;;;5053081;28;20036;-73
2022/08/02 06:04:43;;;;;;;0.40;0.30;;;14.10;99.90;;;;;;5053527;28;20021;-74
2022/08/02 06:07:13;;;;;;;0.95;0.30;;;14.00;99.90;;;;;;5052903;28;20036;-72
2022/08/02 06:09:42;;;;;;;0.30;0.30;;;14.00;99.90;;;;;;5051941;28;20409;-72
2022/08/02 06:12:13;;;;;;;0.70;0.38;;;14.00;99.90;;;;;;5053236;28;20021;-71
2022/08/02 06:14:45;;;;;;;0.50;0.30;;;14.00;99.90;;;;;;5053010;28;20021;-74
2022/08/02 06:17:14;;;;;;;0.20;0.20;;;13.90;99.90;;;;;;5053127;28;20051;-72
2022/08/02 06:19:43;;;;;;;0.15;0.15;;;13.90;99.90;;;;;;5053142;28;20037;-72
2022/08/02 06:22:14;;;;;;;0.55;0.20;;;13.90;99.90;;;;;;5052960;28;20032;-72
2022/08/02 06:24:45;;;;;;;0.75;0.30;;;13.80;99.90;;;;;;5053260;28;20021;-71
2022/08/02 06:27:14;;;;;;;0.68;0.40;;;13.80;99.90;;;;;;5053234;28;20029;-74
2022/08/02 06:29:45;;;;;;;1.08;0.40;;;13.80;99.90;;;;;;5053008;28;20021;-74
2022/08/02 06:32:16;;;;;;;1.05;0.45;;;13.70;99.90;;;;;;5052990;28;20021;-72
2022/08/02 06:34:45;;;;;;;0.93;0.50;;;13.60;99.90;;;;;;5053202;28;20155;-72
2022/08/02 06:37:37;;;;;;;0.55;0.30;;;13.60;99.90;;;;;;5053066;28;20029;-71
2022/08/02 06:40:27;;;;;;;0.90;0.40;;;13.60;99.90;;;;;;5052989;28;20029;-72
2022/08/02 06:43:23;;;;;;;1.55;0.40;;;13.60;99.90;;;;;;5053305;28;20032;-72
2022/08/02 06:45:51;;;;;;;0.38;0.20;;;13.60;99.90;;;;;;5053367;28;20146;-74
2022/08/02 06:48:19;;;;;;;0.95;0.30;;;13.60;99.90;;;;;;5052922;28;20029;-72
2022/08/02 06:50:46;;;;;;;1.30;0.38;;;13.60;99.90;;;;;;5052955;28;20028;-75
2022/08/02 06:53:14;;;;;;;0.60;0.30;;;13.60;99.90;;;;;;5052875;28;20018;-74
2022/08/02 06:55:42;;;;;;;0.20;0.20;;;13.60;99.90;;;;;;5052737;28;20032;-74
2022/08/02 06:58:10;;;;;;;0.38;0.30;;;13.40;99.90;;;;;;5052643;28;20040;-71
2022/08/02 07:00:38;;;;;;;0.52;0.40;;;13.40;99.90;;;;;;5052955;28;20025;-74
2022/08/02 07:03:06;;;;;;;1.33;0.40;;;13.30;99.90;;;;;;5052604;28;20049;-74
2022/08/02 07:05:33;;;;;;;1.40;0.73;;;13.30;99.90;;;;;;5052733;28;20075;-71
2022/08/02 07:08:02;;;;;;;0.40;0.40;;;13.20;99.90;;;;;;5052861;28;20484;-72
2022/08/02 07:10:30;;;;;;;1.08;0.40;;;13.10;99.90;;;;;;5052911;28;20022;-72
2022/08/02 07:12:57;;;;;;;0.47;0.20;;;13.00;99.90;;;;;;5052641;28;20029;-71
2022/08/02 07:15:25;;;;;;;3.05;0.30;;;13.00;99.90;;;;;;5052446;28;20022;-71
2022/08/02 07:17:53;;;;;;;0.63;0.40;;;12.90;99.90;;;;;;5052656;28;20486;-71
2022/08/02 07:20:21;;;;;;;1.35;0.40;;;12.80;99.90;;;;;;5054914;28;20044;-71
2022/08/02 07:22:49;;;;;;;4.57;0.60;;;12.70;99.90;;;;;;5056070;28;20025;-71
2022/08/02 07:25:17;;;;;;;1.42;0.60;;;12.70;99.90;;;;;;5056359;28;20474;-71
2022/08/02 07:27:44;;;;;;;3.30;0.57;;;12.60;99.90;;;;;;5056152;28;20025;-71
2022/08/02 07:30:12;;;;;;;0.82;0.40;;;12.40;99.90;;;;;;5056034;28;20108;-71
2022/08/02 07:32:40;;;;;;;0.40;0.40;;;12.40;99.90;;;;;;5056022;28;20025;-71
2022/08/02 07:35:09;;;;;;;0.70;0.70;;;12.30;99.90;;;;;;5055952;28;20036;-71
2022/08/02 07:37:41;;;;;;;1.17;0.70;;;12.30;99.90;;;;;;5055863;28;20482;-72
2022/08/02 07:40:11;;;;;;;3.58;0.98;;;12.20;99.90;;;;;;5056550;28;20038;-71
2022/08/02 07:42:39;;;;;;;0.50;0.40;;;12.10;99.90;;;;;;5055720;28;20100;-71
2022/08/02 07:45:07;;;;;;;3.08;1.00;;;12.10;99.90;;;;;;5055740;28;20025;-71
2022/08/02 07:47:37;;;;;;;1.25;0.70;;;12.00;99.90;;;;;;5055654;28;20021;-72
2022/08/02 07:50:10;;;;;;;0.90;0.80;;;11.90;99.90;;;;;;5055870;28;20079;-71
2022/08/02 07:52:39;;;;;;;3.28;1.27;;;11.90;99.90;;;;;;5055623;28;20043;-72
2022/08/02 07:55:08;;;;;;;1.02;0.70;;;11.80;99.90;;;;;;5055540;28;20108;-72
2022/08/02 07:57:36;;;;;;;0.70;0.60;;;11.80;99.90;;;;;;5055476;28;20025;-73
2022/08/02 08:00:06;;;;;;;1.65;0.88;;;11.80;99.90;;;;;;5055506;28;20033;-72
2022/08/02 08:02:33;;;;;;;1.60;0.90;;;11.70;99.90;;;;;;5055324;28;20044;-71
2022/08/02 08:05:01;;;;;;;5.55;1.55;;;11.70;99.90;;;;;;5055625;28;20033;-71
2022/08/02 08:07:29;;;;;;;2.53;1.10;;;11.70;99.90;;;;;;5055577;28;20071;-71
2022/08/02 08:09:58;;;;;;;2.85;1.25;;;11.60;99.90;;;;;;5055357;28;20021;-71
2022/08/02 08:12:26;;;;;;;1.92;1.10;;;11.50;99.90;;;;;;5055159;28;20127;-72
2022/08/02 08:14:54;;;;;;;2.45;0.95;;;11.50;99.90;;;;;;5055240;28;20084;-74
2022/08/02 08:17:22;;;;;;;1.17;0.75;;;11.50;99.90;;;;;;5055122;28;20036;-71
2022/08/02 08:19:50;;;;;;;4.45;0.95;;;11.40;99.90;;;;;;5055789;28;20021;-74
2022/08/02 08:22:17;;;;;;;3.28;1.17;;;11.40;99.90;;;;;;5055042;28;20486;-71
2022/08/02 08:24:46;;;;;;;2.85;1.40;;;11.40;99.90;;;;;;5055224;28;20016;-71
2022/08/02 08:27:18;;;;;;;2.80;1.27;;;11.40;99.90;;;;;;5055145;28;20021;-71
2022/08/02 08:29:46;;;;;;;1.38;1.10;;;11.30;99.90;;;;;;5055190;28;20029;-71
2022/08/02 08:32:14;;;;;;;3.80;1.25;;;11.30;99.90;;;;;;5054513;28;20024;-71
2022/08/02 08:34:42;;;;;;;2.22;1.30;;;11.30;99.90;;;;;;5054712;28;20028;-72
2022/08/02 08:37:10;;;;;;;1.95;1.15;;;11.20;99.90;;;;;;5054723;28;20045;-71
2022/08/02 08:39:40;;;;;;;2.85;1.20;;;11.20;99.90;;;;;;5054799;28;20108;-71
2022/08/02 08:42:08;;;;;;;4.03;1.45;;;11.20;99.90;;;;;;5054764;28;20421;-71
2022/08/02 08:44:36;;;;;;;2.67;1.20;;;11.20;99.90;;;;;;5054849;28;20370;-71
2022/08/02 08:47:06;;;;;;;2.42;1.38;;;11.20;99.90;;;;;;5054526;28;20025;-71
2022/08/02 08:49:47;;;;;;;2.20;1.13;;;11.20;99.90;;;;;;5054583;28;20064;-71
2022/08/02 08:52:18;;;;;;;1.70;1.25;;;11.10;99.90;;;;;;5054461;28;20028;-71
2022/08/02 08:54:48;;;;;;;3.40;1.35;;;11.10;99.90;;;;;;5054871;28;20028;-71
2022/08/02 08:57:17;;;;;;;3.22;1.27;;;11.10;99.90;;;;;;5054286;28;20065;-71
2022/08/02 08:59:46;;;;;;;2.45;1.10;;;11.10;99.90;;;;;;5054388;28;20024;-74
2022/08/02 09:02:13;;;;;;;1.75;1.05;;;11.10;99.90;;;;;;5053993;28;20056;-71
2022/08/02 09:04:46;;;;;;;1.98;1.00;;;11.00;99.90;;;;;;5054253;28;20023;-71
2022/08/02 09:07:14;;;;;;;3.00;1.40;;;11.00;99.90;;;;;;5054422;28;20025;-73
2022/08/02 09:09:42;;;;;;;2.05;1.20;;;11.00;99.90;;;;;;5054079;28;20024;-71
2022/08/02 09:12:18;;;;;;;2.38;1.50;;;10.90;99.90;;;;;;5054074;28;20082;-72
2022/08/02 09:14:46;;;;;;;1.60;1.20;;;10.90;99.90;;;;;;5053970;28;20095;-71
2022/08/02 09:17:14;;;;;;;3.03;1.63;;;10.90;99.90;;;;;;5054040;28;20082;-74
2022/08/02 09:19:42;;;;;;;2.33;1.70;;;10.80;99.90;;;;;;5054096;28;20108;-75
2022/08/02 09:22:11;;;;;;;4.93;1.50;;;10.80;99.90;;;;;;5053894;28;20028;-71
2022/08/02 09:24:50;;;;;;;2.10;1.58;;;10.80;99.90;;;;;;5053855;28;20029;-72
2022/08/02 09:27:22;;;;;;;2.83;1.77;;;10.80;99.90;;;;;;5054001;28;20035;-72
2022/08/02 09:29:52;;;;;;;3.35;1.60;;;10.70;99.90;;;;;;5053942;28;20100;-72
2022/08/02 09:32:20;;;;;;;3.67;1.65;;;10.70;99.90;;;;;;5054390;28;20025;-71
2022/08/02 09:34:55;;;;;;;4.20;1.60;;;10.80;99.90;;;;;;5053722;28;20052;-71
2022/08/02 09:37:31;;;;;;;2.08;1.38;;;10.70;99.90;;;;;;5052384;28;20543;-72
2022/08/02 09:40:04;;;;;;;2.45;1.85;;;10.70;99.90;;;;;;5053748;28;20036;-72
2022/08/02 09:42:35;;;;;;;3.53;1.67;;;10.70;99.90;;;;;;5053036;28;20021;-72
2022/08/02 09:45:03;;;;;;;4.05;2.10;;;10.70;99.90;;;;;;5053730;28;20075;-72
2022/08/02 09:47:32;;;;;;;3.50;1.40;;;10.70;99.90;;;;;;5053723;28;20382;-72
2022/08/02 09:49:59;;;;;;;3.47;1.88;;;10.60;99.90;;;;;;5053504;28;20029;-72
2022/08/02 09:52:31;;;;;;;3.55;1.80;;;10.60;99.90;;;;;;5053383;28;20028;-75
2022/08/02 09:55:06;;;;;;;3.13;1.73;;;10.60;99.90;;;;;;5053382;28;20028;-72
2022/08/02 09:57:37;;;;;;;2.65;2.08;;;10.60;99.90;;;;;;5053259;28;20037;-73
2022/08/02 10:00:11;;;;;;;2.83;1.90;;;10.60;99.90;;;;;;5053407;28;20088;-73
2022/08/02 10:02:42;;;;;;;3.67;2.00;;;10.60;99.90;;;;;;5053119;28;20254;-71
2022/08/02 10:05:09;;;;;;;4.20;1.85;;;10.50;99.90;;;;;;5053266;28;20024;-72
2022/08/02 10:07:37;;;;;;;3.53;2.17;;;10.50;99.90;;;;;;5053364;28;20017;-71
2022/08/02 10:10:06;;;;;;;2.63;1.63;;;10.50;99.90;;;;;;5053412;28;20560;-71
2022/08/02 10:12:35;;;;;;;3.63;2.08;;;10.50;99.90;;;;;;5053047;28;20033;-72
2022/08/02 10:15:03;;;;;;;7.78;2.45;;;10.50;99.90;;;;;;5053016;28;20428;-72
2022/08/02 10:17:38;;;;;;;4.00;1.90;;;10.40;99.90;;;;;;5053128;28;20017;-72
2022/08/02 10:20:06;;;;;;;2.83;1.67;;;10.40;99.90;;;;;;5053144;28;20504;-71
2022/08/02 10:22:39;;;;;;;2.75;1.92;;;10.40;99.90;;;;;;5053010;28;20025;-72
2022/08/02 10:25:09;;;;;;;4.22;1.65;;;10.40;99.90;;;;;;5053161;28;20029;-72
2022/08/02 10:27:38;;;;;;;2.50;1.77;;;10.40;99.90;;;;;;5053050;28;20029;-74
2022/08/02 10:30:07;;;;;;;2.67;1.42;;;10.40;99.90;;;;;;5052972;28;20025;-74
2022/08/02 10:32:43;;;;;;;2.22;1.55;;;10.40;99.90;;;;;;5051662;28;20442;-72
2022/08/02 10:35:20;;;;;;;2.22;1.38;;;10.40;99.90;;;;;;5052772;28;20036;-72
2022/08/02 10:37:52;;;;;;;3.95;1.73;;;10.40;99.90;;;;;;5052901;28;20041;-72
2022/08/02 10:40:24;;;;;;;2.75;1.60;;;10.40;99.90;;;;;;5053043;28;20029;-71
2022/08/02 10:42:59;;;;;;;1.92;1.20;;;10.40;99.90;;;;;;5053184;28;20373;-71
2022/08/02 10:45:27;;;;;;;1.27;1.10;;;10.40;99.90;;;;;;5053198;28;20024;-72
2022/08/02 10:48:02;;;;;;;4.05;1.58;;;10.40;99.90;;;;;;5053123;28;20087;-72
2022/08/02 10:50:47;;;;;;;;;;;10.40;99.90;;;;;;5053344;28;20484;-72
2022/08/02 10:53:37;;;;;;;1.50;0.93;;;10.40;99.90;;;;;;5053308;28;19976;-71
2022/08/02 10:56:06;;;;;;;1.33;0.90;;;10.50;99.90;;;;;;5056718;28;20524;-72
2022/08/02 10:58:34;;;;;;;1.50;0.95;;;10.50;99.90;;;;;;5056614;28;20068;-72
2022/08/02 11:01:27;;;;;;;3.63;0.80;;;10.50;99.90;;;;;;5056627;28;20032;-72
2022/08/02 11:03:59;;;;;;;1.27;1.00;;;10.50;99.90;;;;;;5056684;28;20170;-72
2022/08/02 11:06:27;;;;;;;1.10;0.73;;;10.60;99.90;;;;;;5056707;28;20028;-72
2022/08/02 11:09:26;;;;;;;3.10;0.82;;;10.60;99.90;;;;;;5055240;28;20491;-72
2022/08/02 11:12:07;;;;;;;2.80;0.65;;;10.60;99.90;;;;;;5056518;28;20036;-71
2022/08/02 11:14:37;;;;;;;1.13;0.60;;;10.60;99.90;;;;;;5056439;28;20044;-72
2022/08/02 11:17:05;;;;;;;0.75;0.60;;;10.60;99.90;;;;;;5056265;28;20067;-71
2022/08/02 11:19:33;;;;;;;1.08;0.80;;;10.70;99.90;;;;;;5056723;28;20502;-74
2022/08/02 11:22:08;;;;;;;1.85;0.93;;;10.70;99.90;;;;;;5056197;28;20535;-71
2022/08/02 11:24:37;;;;;;;0.60;0.50;;;10.70;99.90;;;;;;5056267;28;20072;-71
2022/08/02 11:27:07;;;;;;;1.30;0.60;;;10.70;99.90;;;;;;5056556;28;20489;-72
2022/08/02 11:29:43;;;;;;;2.88;0.70;;;10.70;99.90;;;;;;5056217;28;20118;-72
2022/08/02 11:32:19;;;;;;;1.33;0.60;;;10.70;99.90;;;;;;5055916;28;20025;-72
2022/08/02 11:34:52;;;;;;;1.20;0.80;;;10.70;99.90;;;;;;5055935;28;20067;-71
2022/08/02 11:37:36;;;;;;;1.20;0.60;;;10.70;99.90;;;;;;5055665;28;20377;-71
2022/08/02 11:40:07;;;;;;;0.88;0.52;;;10.70;99.90;;;;;;5055916;28;20043;-71
2022/08/02 11:42:43;;;;;;;0.57;0.55;;;10.60;99.90;;;;;;5055856;28;20025;-72
2022/08/02 11:45:12;;;;;;;1.75;0.68;;;10.60;99.90;;;;;;5054015;28;20079;-72
2022/08/02 11:47:53;;;;;;;1.40;0.60;;;10.60;99.90;;;;;;5054504;28;20371;-76
2022/08/02 11:50:25;;;;;;;0.45;0.40;;;10.60;99.90;;;;;;5053281;28;20182;-72
2022/08/02 11:52:52;;;;;;;1.23;0.50;;;10.60;99.90;;;;;;5037907;28;20018;-74
2022/08/02 11:55:30;;;;;;;2.05;1.10;;;10.60;99.90;;;;;;5048835;28;20013;-74
2022/08/02 11:58:02;;;;;;;2.60;0.47;;;10.60;99.90;;;;;;5054839;28;20124;-71
2022/08/02 12:00:29;;;;;;;0.70;0.50;;;10.70;99.90;;;;;;5059311;28;20017;-71
2022/08/02 12:02:57;;;;;;;1.00;0.60;;;10.70;99.90;;;;;;5054385;28;20514;-72
2022/08/02 12:05:25;;;;;;;0.75;0.75;;;10.60;99.90;;;;;;5053604;28;20111;-71
2022/08/02 12:07:55;;;;;;;1.45;0.60;;;10.70;99.90;;;;;;5055091;28;20100;-72
2022/08/02 12:10:24;;;;;;;3.22;0.82;;;10.70;99.90;;;;;;5054935;28;20482;-71
2022/08/02 12:12:58;;;;;;;0.82;0.50;;;10.70;99.90;;;;;;5054036;28;20017;-73
2022/08/02 12:15:40;;;;;;;0.45;0.45;;;10.70;99.90;;;;;;5054758;28;20098;-72
2022/08/02 12:21:01;;;;;;;1.00;0.60;;;10.80;99.90;;;;;;5058252;28;20032;-72
2022/08/02 12:23:29;;;;;;;0.82;0.40;;;10.80;99.90;;;;;;5073358;28;20038;-72
2022/08/02 12:26:09;;;;;;;4.50;0.57;;;10.80;99.90;;;;;;5054604;28;20028;-76
2022/08/02 12:28:39;;;;;;;1.73;0.50;;;10.80;99.90;;;;;;5074681;28;20028;-72
2022/08/02 12:31:16;;;;;;;0.68;0.52;;;10.80;99.90;;;;;;5074321;28;20024;-74
2022/08/02 12:33:49;;;;;;;1.55;0.63;;;10.80;99.90;;;;;;5074411;28;20473;-73
2022/08/02 12:36:22;;;;;;;0.60;0.50;;;10.80;99.90;;;;;;5074477;28;20020;-72
2022/08/02 12:38:58;;;;;;;0.95;0.57;;;10.80;99.90;;;;;;5073894;28;20115;-72
2022/08/02 12:41:29;;;;;;;1.65;0.60;;;10.80;99.90;;;;;;5072632;28;20020;-74
2022/08/02 12:43:56;;;;;;;0.70;0.50;;;10.70;99.90;;;;;;5072785;28;20021;-72
2022/08/02 12:46:24;;;;;;;0.63;0.50;;;10.70;99.90;;;;;;5072149;28;20074;-71
2022/08/02 12:48:51;;;;;;;0.90;0.65;;;10.70;99.90;;;;;;5073918;28;20481;-72
2022/08/02 12:51:28;;;;;;;2.05;0.60;;;10.70;99.90;;;;;;5073950;28;20031;-72
2022/08/02 12:54:11;;;;;;;1.35;0.50;;;10.70;99.90;;;;;;5063595;28;20424;-72
2022/08/02 12:56:39;;;;;;;1.20;0.65;;;10.60;99.90;;;;;;5053795;28;20039;-72
2022/08/02 12:59:06;;;;;;;0.68;0.60;;;10.60;99.90;;;;;;5052973;28;20515;-72
2022/08/02 13:01:34;;;;;;;0.30;0.30;;;10.60;99.90;;;;;;5063096;28;20013;-73
2022/08/02 13:04:02;;;;;;;2.92;0.80;;;10.60;99.90;;;;;;5061326;28;20394;-73
2022/08/02 13:06:29;;;;;;;0.55;0.40;;;10.60;99.90;;;;;;5062628;28;20381;-73
2022/08/02 13:09:00;;;;;;;2.22;0.82;;;10.60;99.90;;;;;;5039887;28;20048;-73
2022/08/02 13:11:28;;;;;;;1.58;0.60;;;10.60;99.90;;;;;;5035198;28;20033;-73